createdAt,value
2018-11-25T07:45:21.241Z,6.10
2018-11-25T07:47:53.330Z,6.10
2018-11-25T07:50:24.088Z,6.10
2018-11-25T07:52:54.837Z,6.10
2018-11-25T08:04:46.778Z,6.50
2018-11-25T08:07:22.011Z,6.50
2018-11-25T08:09:55.692Z,6.50
2018-11-25T08:12:27.595Z,6.60
2018-11-25T08:15:10.574Z,6.60
2018-11-25T08:17:44.672Z,6.70
2018-11-25T08:20:20.523Z,6.70
2018-11-25T08:22:54.048Z,6.80
2018-11-25T08:25:27.735Z,6.70
2018-11-25T08:28:20.527Z,6.80
2018-11-25T08:47:22.284Z,6.90
2018-11-25T09:46:50.298Z,8.60
2018-11-25T10:32:59.740Z,8.40
2018-11-25T12:24:32.065Z,7.20
2018-11-25T12:27:02.881Z,7.10
2018-11-25T12:29:32.527Z,7.10
2018-11-25T12:32:01.559Z,7.20
2018-11-25T12:34:30.376Z,7.10
2018-11-25T12:36:59.140Z,7.10
2018-11-25T15:54:21.405Z,6.30
2018-11-25T15:57:47.944Z,6.30
2018-11-25T16:00:40.229Z,6.30
2018-11-25T16:10:12.850Z,6.30
2018-11-25T16:12:46.778Z,6.20
2018-11-25T16:15:20.678Z,6.20
2018-11-25T16:21:04.280Z,6.20
2018-11-25T16:23:43.980Z,6.10
2018-11-25T16:26:27.510Z,6.10
2018-11-25T16:29:09.040Z,6.10
2018-11-25T16:31:42.101Z,6.10
2018-11-25T16:34:21.876Z,6.10
2018-11-25T16:36:58.592Z,6.10
2018-11-25T16:39:33.088Z,6.00
2018-11-25T16:42:09.054Z,6.10
2018-11-25T16:44:52.418Z,6.10
2018-11-25T16:47:26.046Z,6.10
2018-11-25T16:50:00.962Z,6.10
2018-11-25T16:52:32.874Z,6.10
2018-11-25T16:55:07.961Z,6.10
2018-11-25T16:57:45.794Z,6.10
2018-11-25T17:00:19.100Z,6.10
2018-11-25T17:03:02.433Z,6.00
2018-11-25T17:09:28.404Z,6.00
2018-11-25T17:12:02.042Z,6.10
2018-11-25T17:18:24.556Z,6.10
2018-11-25T17:20:55.777Z,6.10
2018-11-25T17:26:57.483Z,6.10
2018-11-25T17:29:28.505Z,6.00
2018-11-25T17:36:12.014Z,6.10
2018-11-25T17:38:42.482Z,6.10
2018-11-25T17:41:15.201Z,6.10
2018-11-25T17:47:24.705Z,6.10
2018-11-25T17:49:54.854Z,6.10
2018-11-25T17:52:27.749Z,6.10
2018-11-25T17:54:59.462Z,6.10
2018-11-25T17:57:30.703Z,6.10
2018-11-25T19:06:03.057Z,6.10
2018-11-25T19:27:12.572Z,6.10
2018-11-25T19:29:49.838Z,6.10
2018-11-25T19:32:24.801Z,6.10
2018-11-25T19:35:23.695Z,6.10
2018-11-25T19:38:14.026Z,6.10
2018-11-25T19:40:52.807Z,6.20
2018-11-25T19:43:40.921Z,6.20
2018-11-25T19:46:16.206Z,6.20
